Time;durP1;ratioP1;P1;durP2;ratioP2;P2;SDS_P1;SDS_P2;PMS_P1;PMS_P2;Temp;Humidity;BMP_temperature;BMP_pressure;BME280_temperature;BME280_humidity;BME280_pressure;Samples;Min_cycle;Max_cycle;Signal;HPM_P1;HPM_P2
2021/07/19 00:01:48;;;;;;;17.33;7.32;;;;;;;17.51;86.38;101877.84;6246544;28;20416;-75
2021/07/19 00:04:50;;;;;;;14.25;6.00;;;;;;;17.51;85.61;101872.50;6246475;28;20045;-75
2021/07/19 00:07:51;;;;;;;18.40;6.32;;;;;;;17.60;85.55;101866.59;6246093;28;20053;-74
2021/07/19 00:10:53;;;;;;;15.93;6.25;;;;;;;17.48;86.25;101870.03;6246312;28;20045;-75
2021/07/19 00:13:56;;;;;;;15.25;6.43;;;;;;;17.44;87.14;101872.06;6246536;28;20079;-74
2021/07/19 00:16:58;;;;;;;11.75;5.93;;;;;;;17.67;85.54;101864.41;6258287;28;20152;-75
2021/07/19 00:20:00;;;;;;;22.02;6.90;;;;;;;17.49;87.14;101874.44;6270585;28;20053;-75
2021/07/19 00:23:01;;;;;;;14.63;6.70;;;;;;;17.52;86.70;101868.91;6266554;28;20509;-74
2021/07/19 00:26:02;;;;;;;15.60;6.10;;;;;;;17.63;85.39;101877.03;6270464;28;20049;-75
2021/07/19 00:29:05;;;;;;;17.85;6.18;;;;;;;17.69;84.88;101881.94;6270855;28;20052;-75
2021/07/19 00:32:07;;;;;;;10.50;5.93;;;;;;;17.42;85.71;101881.06;6270836;28;20052;-75
2021/07/19 00:35:09;;;;;;;15.75;6.57;;;;;;;17.16;87.36;101875.59;6270693;28;20055;-75
2021/07/19 00:38:11;;;;;;;17.52;6.22;;;;;;;17.33;86.46;101873.69;6270493;28;20045;-75
2021/07/19 00:41:12;;;;;;;14.70;7.38;;;;;;;17.04;86.96;101878.19;6270613;28;20052;-75
2021/07/19 00:44:17;;;;;;;16.55;6.00;;;;;;;17.01;87.25;101878.38;6270581;28;20053;-74
2021/07/19 00:47:18;;;;;;;12.88;6.78;;;;;;;16.96;88.83;101882.19;6270412;28;20049;-75
2021/07/19 00:50:22;;;;;;;12.32;5.80;;;;;;;16.90;87.91;101877.25;6270747;28;20052;-75
2021/07/19 00:53:23;;;;;;;13.65;6.43;;;;;;;16.81;89.09;101880.47;6270628;28;20045;-75
2021/07/19 00:56:25;;;;;;;18.00;6.85;;;;;;;16.69;90.17;101878.53;6271850;28;20439;-75
2021/07/19 00:59:31;;;;;;;12.85;5.97;;;;;;;16.69;89.46;101878.53;6275018;28;20053;-74
2021/07/19 01:02:33;;;;;;;16.98;6.85;;;;;;;16.74;90.34;101871.16;6275118;28;20045;-75
2021/07/19 01:05:37;;;;;;;15.48;6.65;;;;;;;16.89;87.89;101877.34;6274810;28;20052;-75
2021/07/19 01:08:40;;;;;;;13.60;6.28;;;;;;;16.60;89.79;101874.63;6274552;28;20056;-75
2021/07/19 01:11:42;;;;;;;15.60;6.38;;;;;;;16.54;89.84;101875.00;6274740;28;20052;-75
2021/07/19 01:14:44;;;;;;;15.20;6.50;;;;;;;16.67;90.25;101875.13;6274927;28;20049;-75
2021/07/19 01:17:46;;;;;;;12.30;6.32;;;;;;;16.49;90.95;101874.44;6274463;28;20481;-75
2021/07/19 01:21:11;;;;;;;18.30;7.10;;;;;;;16.52;91.30;101879.53;6274279;28;20045;-75
2021/07/19 01:24:29;;;;;;;14.43;6.68;;;;;;;16.48;91.56;101883.31;6274705;28;20511;-74
2021/07/19 01:27:52;;;;;;;16.23;6.35;;;;;;;16.63;90.55;101893.03;6274601;28;20045;-75
2021/07/19 01:30:59;;;;;;;13.95;6.28;;;;;;;16.49;91.70;101895.66;6274276;28;20051;-74
2021/07/19 01:34:04;;;;;;;21.75;7.18;;;;;;;16.45;93.44;101892.34;6274331;28;20055;-74
2021/07/19 01:37:08;;;;;;;16.27;7.53;;;;;;;16.54;92.08;101892.75;6274123;28;20056;-74
2021/07/19 01:40:11;;;;;;;12.82;6.65;;;;;;;16.82;90.88;101894.59;6274111;28;20491;-74
2021/07/19 01:43:13;;;;;;;15.77;6.20;;;;;;;16.52;92.67;101897.28;6274018;28;20045;-74
2021/07/19 01:46:17;;;;;;;13.77;6.13;;;;;;;16.56;93.85;101891.69;6273905;28;20055;-74
2021/07/19 01:49:19;;;;;;;16.92;5.93;;;;;;;16.60;93.33;101893.22;6273826;28;20527;-75
2021/07/19 01:52:22;;;;;;;17.77;7.03;;;;;;;16.62;92.70;101895.75;6273990;28;20056;-75
2021/07/19 01:55:24;;;;;;;14.93;6.18;;;;;;;16.59;93.38;101896.81;6273816;28;20462;-74
2021/07/19 01:58:27;;;;;;;15.18;6.07;;;;;;;16.71;92.29;101893.44;6273415;28;20041;-75
2021/07/19 02:01:30;;;;;;;14.18;6.03;;;;;;;16.58;93.03;101895.13;6273547;28;20048;-75
2021/07/19 02:04:32;;;;;;;14.07;6.05;;;;;;;16.61;93.46;101900.22;6273465;28;20048;-75
2021/07/19 02:07:35;;;;;;;13.48;6.45;;;;;;;16.75;92.36;101904.72;6272700;28;20382;-74
2021/07/19 02:10:37;;;;;;;19.77;6.28;;;;;;;16.70;91.18;101898.81;6273157;28;20053;-75
2021/07/19 02:13:44;;;;;;;18.25;6.25;;;;;;;16.46;93.33;101904.66;6273221;28;20373;-75
2021/07/19 02:16:51;;;;;;;17.75;6.50;;;;;;;16.41;94.18;101893.47;6266385;28;20420;-75
2021/07/19 02:19:53;;;;;;;17.38;6.18;;;;;;;16.36;94.72;101884.94;6255245;28;20057;-75
2021/07/19 02:22:55;;;;;;;15.23;6.38;;;;;;;16.32;94.39;101888.69;6261520;28;20057;-74
2021/07/19 02:25:59;;;;;;;13.45;6.47;;;;;;;16.35;94.81;101898.25;6253238;28;20052;-75
2021/07/19 02:29:01;;;;;;;13.48;6.28;;;;;;;16.34;95.25;101892.09;6250694;28;20463;-75
2021/07/19 02:32:05;;;;;;;18.67;7.68;;;;;;;16.34;94.64;101886.81;6248148;28;20053;-74
2021/07/19 02:35:08;;;;;;;17.33;6.63;;;;;;;16.26;96.27;101886.44;6249103;28;20060;-74
2021/07/19 02:38:11;;;;;;;17.58;6.45;;;;;;;16.31;95.80;101887.00;6260613;28;20512;-75
2021/07/19 02:41:13;;;;;;;17.55;6.72;;;;;;;16.38;95.92;101893.63;6258548;28;20401;-74
2021/07/19 02:44:15;;;;;;;15.98;6.65;;;;;;;16.30;94.89;101881.78;6252934;28;20171;-75
2021/07/19 02:47:19;;;;;;;17.38;6.90;;;;;;;16.18;95.85;101886.00;6258686;28;20049;-74
2021/07/19 02:50:24;;;;;;;21.23;7.00;;;;;;;16.17;97.06;101886.97;6247688;28;20049;-75
2021/07/19 02:53:30;;;;;;;18.00;7.40;;;;;;;16.23;96.25;101878.63;6247361;28;20048;-75
2021/07/19 02:56:35;;;;;;;19.42;6.68;;;;;;;16.16;96.80;101887.88;6247277;28;20057;-75
2021/07/19 02:59:37;;;;;;;15.40;7.43;;;;;;;16.08;96.07;101888.34;6247358;28;20045;-75
2021/07/19 03:02:42;;;;;;;19.05;7.18;;;;;;;15.99;97.27;101888.88;6247521;28;20049;-75
2021/07/19 03:05:47;;;;;;;16.60;6.55;;;;;;;15.93;97.53;101891.88;6247244;28;20045;-74
2021/07/19 03:08:49;;;;;;;19.00;6.88;;;;;;;15.89;97.46;101893.00;6247267;28;20041;-76
2021/07/19 03:11:53;;;;;;;14.80;6.65;;;;;;;15.84;97.67;101893.25;6247608;28;20053;-75
2021/07/19 03:14:55;;;;;;;17.38;7.03;;;;;;;15.79;97.28;101884.72;6247035;28;20057;-74
2021/07/19 03:18:00;;;;;;;17.58;6.22;;;;;;;15.83;94.31;101888.03;6246965;28;20497;-75
2021/07/19 03:21:01;;;;;;;18.98;6.45;;;;;;;15.61;96.48;101889.22;6246792;28;20053;-75
2021/07/19 03:24:04;;;;;;;13.20;5.85;;;;;;;15.71;96.11;101889.59;6247302;28;20056;-75
2021/07/19 03:27:06;;;;;;;26.08;6.45;;;;;;;15.64;96.57;101886.44;6246761;28;20550;-75
2021/07/19 03:30:09;;;;;;;15.50;6.25;;;;;;;15.54;97.20;101892.31;6246791;28;20049;-74
2021/07/19 03:33:12;;;;;;;17.05;5.78;;;;;;;15.52;94.74;101892.38;6246896;28;20049;-74
2021/07/19 03:36:15;;;;;;;17.40;5.72;;;;;;;15.59;93.27;101895.56;6246728;28;20050;-75
2021/07/19 03:39:17;;;;;;;18.90;6.10;;;;;;;15.36;95.84;101895.03;6246707;28;20048;-74
2021/07/19 03:42:20;;;;;;;19.17;6.90;;;;;;;15.47;94.51;101894.44;6246698;28;20416;-75
2021/07/19 03:45:22;;;;;;;13.35;6.30;;;;;;;15.42;93.18;101894.69;6246780;28;20049;-75
2021/07/19 03:48:26;;;;;;;12.43;4.85;;;;;;;15.30;93.69;101894.50;6246301;28;20053;-76
2021/07/19 03:51:28;;;;;;;21.23;6.13;;;;;;;15.33;93.97;101899.66;6246546;28;20408;-75
2021/07/19 03:54:30;;;;;;;17.83;5.40;;;;;;;15.33;94.84;101891.69;6246627;28;20136;-75
2021/07/19 03:57:31;;;;;;;20.98;6.35;;;;;;;15.35;94.35;101893.34;6246451;28;20042;-75
2021/07/19 04:00:33;;;;;;;25.95;6.57;;;;;;;15.35;93.20;101898.63;6245999;28;20049;-75
2021/07/19 04:03:46;;;;;;;14.50;6.30;;;;;;;15.38;93.00;101895.81;6266147;28;20045;-75
2021/07/19 04:06:48;;;;;;;15.00;5.80;;;;;;;15.28;94.09;101899.06;6260330;28;20045;-74
2021/07/19 04:09:50;;;;;;;19.23;5.95;;;;;;;15.32;91.90;101893.50;6258589;28;20057;-74
2021/07/19 04:12:53;;;;;;;16.08;5.63;;;;;;;15.24;94.20;101887.75;6259751;28;20048;-74
2021/07/19 04:15:55;;;;;;;17.42;5.68;;;;;;;15.27;93.42;101902.66;6260129;28;20054;-75
2021/07/19 04:18:57;;;;;;;19.15;5.78;;;;;;;15.24;92.69;101887.75;6255991;28;20052;-75
2021/07/19 04:21:59;;;;;;;14.75;5.57;;;;;;;15.28;92.02;101893.75;6259947;28;20049;-75
2021/07/19 04:25:00;;;;;;;14.35;5.03;;;;;;;15.23;93.34;101904.59;6257465;28;20054;-74
2021/07/19 04:28:02;;;;;;;22.48;5.15;;;;;;;15.27;93.05;101897.34;6257579;28;20045;-75
2021/07/19 04:31:03;;;;;;;17.83;5.63;;;;;;;15.24;91.95;101906.31;6271766;28;20056;-75
2021/07/19 04:34:06;;;;;;;21.40;6.50;;;;;;;15.30;92.61;101907.75;6275803;28;20484;-75
2021/07/19 04:37:09;;;;;;;18.65;5.55;;;;;;;15.35;91.90;101914.53;6275906;28;20045;-74
2021/07/19 04:40:12;;;;;;;13.77;5.38;;;;;;;15.25;92.19;101905.34;6275775;28;20511;-76
2021/07/19 04:43:13;;;;;;;14.63;5.35;;;;;;;15.22;92.53;101892.31;6276003;28;20052;-75
2021/07/19 04:46:14;;;;;;;14.90;5.68;;;;;;;15.36;91.35;101899.50;6275895;28;20049;-75
2021/07/19 04:49:18;;;;;;;21.25;5.60;;;;;;;15.25;92.20;101905.34;6275220;28;20052;-75
2021/07/19 04:52:19;;;;;;;12.93;4.53;;;;;;;15.34;91.24;101899.56;6275508;28;20459;-75
2021/07/19 04:55:22;;;;;;;13.30;5.28;;;;;;;15.33;91.39;101911.09;6275486;28;20057;-75
2021/07/19 04:58:26;;;;;;;12.35;4.50;;;;;;;15.58;89.32;101905.31;6275251;28;20045;-75
2021/07/19 05:01:29;;;;;;;15.65;4.68;;;;;;;15.29;91.49;101911.34;6275027;28;20056;-75
2021/07/19 05:04:35;;;;;;;16.02;5.40;;;;;;;15.39;92.23;101904.59;6275464;28;20045;-75
2021/07/19 05:07:39;;;;;;;23.17;6.05;;;;;;;15.56;89.07;101909.81;6274889;28;20060;-75
2021/07/19 05:10:42;;;;;;;17.70;5.10;;;;;;;15.38;90.43;101903.75;6275065;28;20056;-75
2021/07/19 05:13:44;;;;;;;26.45;5.47;;;;;;;15.56;88.83;101911.63;6274748;28;20056;-76
2021/07/19 05:16:47;;;;;;;12.32;4.82;;;;;;;15.45;90.17;101920.19;6274728;28;20060;-76
2021/07/19 05:19:50;;;;;;;20.08;4.82;;;;;;;15.54;89.51;101917.03;6274584;28;20041;-75
2021/07/19 05:22:53;;;;;;;14.75;4.50;;;;;;;15.63;87.66;101911.22;6274948;28;20049;-75
2021/07/19 05:25:55;;;;;;;18.40;5.07;;;;;;;15.46;89.57;101912.13;6274393;28;20049;-75
2021/07/19 05:28:56;;;;;;;16.38;4.53;;;;;;;15.66;87.61;101907.53;6274493;28;20041;-75
2021/07/19 05:31:58;;;;;;;12.95;4.38;;;;;;;15.59;89.21;101908.81;6274470;28;20132;-75
2021/07/19 05:35:00;;;;;;;20.05;4.55;;;;;;;15.65;89.28;101913.78;6274600;28;20053;-75
2021/07/19 05:38:02;;;;;;;15.32;4.57;;;;;;;15.68;88.90;101911.84;6274016;28;20045;-75
2021/07/19 05:41:05;;;;;;;14.13;4.28;;;;;;;15.81;89.28;101924.41;6274097;28;20419;-75
2021/07/19 05:44:06;;;;;;;11.18;4.30;;;;;;;15.88;87.75;101915.16;6273505;28;20126;-75
2021/07/19 05:47:08;;;;;;;14.25;4.72;;;;;;;15.96;86.64;101911.13;6273943;28;20056;-75
2021/07/19 05:50:12;;;;;;;13.98;4.85;;;;;;;16.05;86.00;101916.84;6274042;28;20067;-75
2021/07/19 05:53:14;;;;;;;19.70;4.55;;;;;;;15.90;87.14;101919.44;6273932;28;20049;-75
2021/07/19 05:56:15;;;;;;;12.02;4.38;;;;;;;15.97;85.80;101918.13;6274031;28;20045;-75
2021/07/19 05:59:17;;;;;;;14.05;5.22;;;;;;;15.90;87.06;101924.75;6273392;28;20052;-74
2021/07/19 06:02:18;;;;;;;12.40;4.82;;;;;;;15.99;86.58;101918.06;6273778;28;20053;-75
2021/07/19 06:05:21;;;;;;;16.77;5.53;;;;;;;15.91;87.43;101926.44;6273865;28;20059;-75
2021/07/19 06:08:22;;;;;;;14.73;4.03;;;;;;;15.91;86.23;101926.44;6273108;28;20415;-75
2021/07/19 06:11:23;;;;;;;15.32;4.47;;;;;;;15.88;87.77;101929.25;6273582;28;20492;-75
2021/07/19 06:14:25;;;;;;;16.08;4.90;;;;;;;16.03;87.20;101926.66;6272810;28;20056;-75
2021/07/19 06:17:26;;;;;;;14.57;5.28;;;;;;;16.04;86.88;101934.56;6268976;28;20060;-75
2021/07/19 06:20:29;;;;;;;14.88;4.65;;;;;;;16.00;86.39;101942.78;6272909;28;20049;-76
2021/07/19 06:23:30;;;;;;;17.52;4.95;;;;;;;16.09;87.38;101934.28;6273322;28;20045;-75
2021/07/19 06:26:32;;;;;;;15.65;4.57;;;;;;;16.01;87.62;101940.03;6273017;28;20057;-75
2021/07/19 06:29:34;;;;;;;17.45;4.63;;;;;;;16.10;87.09;101938.63;6257820;28;20114;-75
2021/07/19 06:32:36;;;;;;;18.27;5.90;;;;;;;16.06;87.21;101947.72;6248464;28;20045;-75
2021/07/19 06:35:39;;;;;;;14.48;4.47;;;;;;;16.22;87.27;101951.22;6249449;28;20052;-75
2021/07/19 06:38:41;;;;;;;15.32;5.43;;;;;;;16.21;85.36;101949.47;6269738;28;20048;-75
2021/07/19 06:41:42;;;;;;;14.13;4.38;;;;;;;16.27;84.18;101945.63;6273026;28;20523;-76
2021/07/19 06:44:43;;;;;;;21.65;4.53;;;;;;;16.18;86.75;101947.88;6272638;28;20049;-75
2021/07/19 06:47:46;;;;;;;16.63;4.40;;;;;;;16.23;85.49;101950.25;6272326;28;20082;-75
2021/07/19 06:50:48;;;;;;;18.30;4.60;;;;;;;16.43;84.02;101949.94;6272915;28;20045;-76
2021/07/19 06:53:50;;;;;;;13.80;3.83;;;;;;;16.45;82.33;101947.22;6272180;28;20508;-76
2021/07/19 06:56:51;;;;;;;13.75;4.50;;;;;;;16.52;81.74;101945.03;6271019;28;20424;-75
2021/07/19 06:59:55;;;;;;;18.17;4.43;;;;;;;16.69;80.85;101950.19;6272063;28;20045;-75
2021/07/19 07:02:56;;;;;;;18.23;4.78;;;;;;;16.49;82.67;101948.75;6272177;28;20072;-76
2021/07/19 07:05:58;;;;;;;16.33;4.32;;;;;;;16.59;81.54;101946.41;6272266;28;20045;-75
2021/07/19 07:09:00;;;;;;;14.40;4.15;;;;;;;16.63;81.80;101935.50;6265172;28;20050;-76
2021/07/19 07:12:01;;;;;;;14.13;3.60;;;;;;;16.88;76.16;101940.22;6263383;28;20048;-76
2021/07/19 07:15:04;;;;;;;12.02;3.55;;;;;;;17.12;74.39;101943.19;6270784;28;20420;-76
2021/07/19 07:18:06;;;;;;;16.33;3.85;;;;;;;17.04;75.13;101942.78;6271477;28;20049;-75
2021/07/19 07:21:08;;;;;;;7.25;2.92;;;;;;;16.95;75.68;101936.25;6271268;28;20174;-75
2021/07/19 07:24:10;;;;;;;11.48;3.75;;;;;;;16.92;76.04;101933.75;6270469;28;20049;-75
2021/07/19 07:27:12;;;;;;;10.63;3.97;;;;;;;17.20;70.89;101929.41;6270360;28;20072;-77
2021/07/19 07:30:15;;;;;;;15.43;4.20;;;;;;;17.02;70.14;101927.88;6261909;28;20045;-77
2021/07/19 07:33:17;;;;;;;10.50;3.60;;;;;;;16.97;69.68;101928.16;6257296;28;20059;-76
2021/07/19 07:36:19;;;;;;;13.18;3.80;;;;;;;17.22;68.08;101938.16;6263131;28;20049;-76
2021/07/19 07:39:21;;;;;;;9.65;2.97;;;;;;;17.39;64.19;101927.28;6259819;28;20048;-74
2021/07/19 07:42:23;;;;;;;11.48;4.15;;;;;;;17.33;65.26;101932.16;6267124;28;20049;-75
2021/07/19 07:45:25;;;;;;;8.00;3.58;;;;;;;17.27;63.04;101927.25;6271612;28;20049;-75
2021/07/19 07:48:26;;;;;;;6.78;3.58;;;;;;;17.60;63.78;101922.44;6271200;28;20049;-75
2021/07/19 07:51:29;;;;;;;7.63;3.15;;;;;;;17.64;63.02;101923.09;6271610;28;20408;-74
2021/07/19 07:54:30;;;;;;;8.85;3.70;;;;;;;17.47;63.33;101910.88;6271456;28;20523;-76
2021/07/19 07:57:31;;;;;;;10.68;3.45;;;;;;;17.50;62.65;101918.66;6271810;28;20057;-75
2021/07/19 08:00:33;;;;;;;11.65;3.25;;;;;;;17.72;65.93;101915.47;6271072;28;20048;-76
2021/07/19 08:03:34;;;;;;;7.72;3.53;;;;;;;17.57;68.45;101916.44;6269106;28;20048;-73
2021/07/19 08:06:37;;;;;;;8.32;3.38;;;;;;;17.59;66.89;101918.06;6257874;28;20055;-73
2021/07/19 08:09:38;;;;;;;9.38;3.38;;;;;;;17.64;68.32;101915.97;6261152;28;20049;-74
2021/07/19 08:12:39;;;;;;;10.27;3.47;;;;;;;17.65;68.45;101914.16;6252440;28;20417;-73
2021/07/19 08:15:41;;;;;;;12.07;3.67;;;;;;;17.72;67.50;101919.00;6258054;28;20057;-74
2021/07/19 08:18:43;;;;;;;7.95;3.78;;;;;;;17.85;66.24;101918.19;6270444;28;20053;-74
2021/07/19 08:21:46;;;;;;;9.70;4.38;;;;;;;17.71;63.78;101913.75;6266473;28;20052;-74
2021/07/19 08:24:48;;;;;;;8.70;4.18;;;;;;;17.78;64.05;101904.47;6259970;28;20436;-73
2021/07/19 08:27:50;;;;;;;7.22;3.22;;;;;;;18.01;62.38;101905.63;6259479;28;20049;-73
2021/07/19 08:30:51;;;;;;;7.82;3.58;;;;;;;17.91;61.59;101912.50;6260563;28;20053;-74
2021/07/19 08:33:53;;;;;;;12.07;3.90;;;;;;;17.87;61.60;101911.00;6260300;28;20489;-73
2021/07/19 08:36:56;;;;;;;10.02;3.53;;;;;;;17.98;59.54;101906.66;6260202;28;20053;-73
2021/07/19 08:39:57;;;;;;;8.07;3.90;;;;;;;17.98;64.54;101911.97;6262269;28;20050;-73
2021/07/19 08:43:00;;;;;;;9.25;3.35;;;;;;;18.03;64.39;101908.16;6261449;28;20053;-73
2021/07/19 08:46:02;;;;;;;11.05;3.85;;;;;;;17.91;63.50;101901.88;6265048;28;20052;-74
2021/07/19 08:49:05;;;;;;;9.88;3.83;;;;;;;17.90;65.53;101898.34;6275189;28;20057;-74
2021/07/19 08:52:08;;;;;;;6.25;3.28;;;;;;;18.07;66.22;101899.88;6272060;28;20056;-75
2021/07/19 08:55:12;;;;;;;11.70;3.83;;;;;;;17.94;65.33;101904.31;6274824;28;20075;-73
2021/07/19 08:58:15;;;;;;;7.40;3.75;;;;;;;17.90;65.41;101905.50;6275026;28;20053;-75
2021/07/19 09:01:16;;;;;;;8.82;3.83;;;;;;;17.91;63.65;101902.72;6275823;28;20045;-75
2021/07/19 09:04:19;;;;;;;9.77;3.92;;;;;;;18.05;62.20;101900.94;6275489;28;20431;-73
2021/07/19 09:07:23;;;;;;;11.95;4.28;;;;;;;17.81;63.06;101908.75;6273027;28;20048;-75
2021/07/19 09:10:27;;;;;;;9.02;4.38;;;;;;;17.74;63.66;101901.16;6274213;28;20041;-74
2021/07/19 09:13:28;;;;;;;11.45;3.97;;;;;;;17.77;64.74;101907.25;6274330;28;20060;-74
2021/07/19 09:16:39;;;;;;;9.70;3.88;;;;;;;17.69;65.53;101902.38;6274365;28;20416;-73
2021/07/19 09:19:43;;;;;;;7.93;3.45;;;;;;;17.96;65.33;101903.25;6272871;28;20048;-75
2021/07/19 09:22:54;;;;;;;8.02;4.13;;;;;;;18.24;63.99;101896.09;6272559;28;20411;-74
2021/07/19 09:25:56;;;;;;;7.93;4.32;;;;;;;18.30;61.56;101895.69;6273851;28;20048;-75
2021/07/19 09:28:58;;;;;;;10.95;4.10;;;;;;;18.31;60.95;101894.75;6274231;28;20045;-74
2021/07/19 09:32:01;;;;;;;11.40;3.63;;;;;;;18.13;61.98;101886.19;6274260;28;20131;-75
2021/07/19 09:35:09;;;;;;;7.22;4.03;;;;;;;18.16;62.55;101879.78;6274050;28;20048;-73
2021/07/19 09:38:14;;;;;;;10.87;3.93;;;;;;;18.16;62.72;101870.00;6274245;28;20401;-74
2021/07/19 09:41:24;;;;;;;12.07;4.63;;;;;;;18.23;61.47;101875.78;6274229;28;20307;-75
2021/07/19 09:44:26;;;;;;;13.55;4.75;;;;;;;18.26;66.58;101870.25;6274279;28;20048;-74
2021/07/19 09:47:33;;;;;;;8.13;4.38;;;;;;;18.41;63.28;101868.34;6269396;28;20045;-76
2021/07/19 09:50:41;;;;;;;12.75;4.53;;;;;;;18.43;63.88;101882.41;6256001;28;20049;-74
2021/07/19 09:53:44;;;;;;;8.88;4.63;;;;;;;18.19;64.94;101876.94;6273703;28;20049;-73
2021/07/19 09:56:45;;;;;;;9.77;5.00;;;;;;;18.32;64.11;101880.47;6264827;28;20088;-73
2021/07/19 09:59:51;;;;;;;11.07;4.97;;;;;;;18.33;64.06;101871.53;6273063;28;20052;-72
2021/07/19 10:02:53;;;;;;;13.18;5.43;;;;;;;18.00;68.20;101880.81;6272951;28;20060;-72
2021/07/19 10:06:04;;;;;;;14.80;5.10;;;;;;;18.06;65.79;101882.22;6249721;28;20052;-71
2021/07/19 10:09:09;;;;;;;9.43;5.25;;;;;;;18.04;66.04;101876.16;6246474;28;20054;-69
2021/07/19 10:12:16;;;;;;;15.93;5.30;;;;;;;18.02;67.82;101874.53;6249400;28;20053;-70
2021/07/19 10:15:18;;;;;;;18.45;5.32;;;;;;;18.07;66.35;101867.94;6248182;28;20081;-71
2021/07/19 10:18:23;;;;;;;17.40;5.47;;;;;;;17.89;69.00;101874.50;6248078;28;20512;-71
2021/07/19 10:21:29;;;;;;;12.02;5.72;;;;;;;18.12;68.47;101868.53;6248395;28;20053;-71
2021/07/19 10:24:32;;;;;;;11.57;6.32;;;;;;;18.34;67.12;101864.38;6254416;28;20045;-71
2021/07/19 10:27:34;;;;;;;8.68;4.97;;;;;;;18.23;69.64;101855.34;6254435;28;20056;-71
2021/07/19 10:30:36;;;;;;;12.25;5.70;;;;;;;18.48;69.16;101857.16;6257456;28;20045;-71
2021/07/19 10:33:38;;;;;;;10.00;5.60;;;;;;;18.39;68.65;101857.78;6247647;28;20049;-71
2021/07/19 10:36:44;;;;;;;15.80;6.38;;;;;;;18.38;66.03;101847.25;6247953;28;20052;-71
2021/07/19 10:39:52;;;;;;;13.50;5.63;;;;;;;18.37;67.79;101848.22;6247672;28;20508;-71
2021/07/19 10:43:07;;;;;;;13.02;6.05;;;;;;;18.60;68.19;101851.97;6247850;28;20056;-71
2021/07/19 10:46:10;;;;;;;10.45;5.50;;;;;;;18.65;64.77;101849.81;6247959;28;20045;-70
2021/07/19 10:49:14;;;;;;;12.05;6.22;;;;;;;18.72;64.11;101841.34;6247170;28;20420;-71
2021/07/19 10:52:17;;;;;;;13.30;5.55;;;;;;;18.87;65.66;101836.72;6247501;28;20418;-71
2021/07/19 10:55:28;;;;;;;13.70;6.07;;;;;;;19.17;64.56;101838.19;6247620;28;20045;-71
2021/07/19 10:58:40;;;;;;;11.50;5.68;;;;;;;19.28;59.79;101835.56;6247845;28;20057;-71
2021/07/19 11:01:51;;;;;;;13.48;5.90;;;;;;;19.59;61.25;101831.50;6247795;28;20046;-72
2021/07/19 11:04:53;;;;;;;9.65;5.68;;;;;;;19.44;59.75;101825.50;6247046;28;20045;-72
2021/07/19 11:07:54;;;;;;;12.02;6.05;;;;;;;19.30;60.27;101824.78;6246213;28;20068;-71
2021/07/19 11:10:59;;;;;;;9.68;6.05;;;;;;;19.20;65.99;101833.47;6246812;28;20056;-72
2021/07/19 11:14:02;;;;;;;11.25;5.72;;;;;;;19.11;61.92;101826.13;6264653;28;20052;-72
2021/07/19 11:17:09;;;;;;;10.13;6.53;;;;;;;19.17;60.48;101832.84;6271521;28;20132;-71
2021/07/19 11:20:13;;;;;;;12.73;5.93;;;;;;;19.00;63.14;101820.72;6271641;28;20407;-71
2021/07/19 11:23:24;;;;;;;11.57;6.07;;;;;;;18.99;62.06;101821.69;6271550;28;20055;-71
2021/07/19 11:26:28;;;;;;;9.43;5.60;;;;;;;19.05;63.75;101823.06;6271580;28;20389;-72
2021/07/19 11:29:31;;;;;;;14.02;6.97;;;;;;;18.82;62.07;101822.91;6271170;28;20164;-72
2021/07/19 11:32:34;;;;;;;10.35;5.90;;;;;;;18.68;63.81;101812.34;6265427;28;20057;-72
2021/07/19 11:35:40;;;;;;;11.68;5.82;;;;;;;18.74;65.23;101820.75;6259405;28;20055;-72
2021/07/19 11:38:42;;;;;;;17.23;6.10;;;;;;;18.72;63.58;101820.03;6267122;28;20053;-72
2021/07/19 11:41:44;;;;;;;11.73;5.63;;;;;;;18.83;61.41;101819.25;6262088;28;20037;-72
2021/07/19 11:44:46;;;;;;;12.98;5.60;;;;;;;18.64;64.00;101827.66;6271391;28;20041;-71
2021/07/19 11:47:49;;;;;;;13.27;6.47;;;;;;;18.64;65.23;101818.84;6270841;28;20049;-71
2021/07/19 11:50:56;;;;;;;11.52;6.30;;;;;;;18.58;63.94;101819.28;6271190;28;20049;-71
2021/07/19 11:53:59;;;;;;;9.60;5.60;;;;;;;18.88;61.49;101819.78;6271172;28;20057;-71
2021/07/19 11:57:02;;;;;;;9.93;5.45;;;;;;;18.77;63.44;101825.03;6271193;28;20515;-71
2021/07/19 12:00:05;;;;;;;11.18;4.78;;;;;;;18.69;62.03;101808.75;6271144;28;20056;-71
2021/07/19 12:03:10;;;;;;;15.75;5.43;;;;;;;18.85;60.97;101814.69;6271170;28;20053;-71
2021/07/19 12:06:12;;;;;;;10.70;5.35;;;;;;;18.78;62.25;101815.22;6263599;28;20130;-71
2021/07/19 12:09:13;;;;;;;15.02;5.40;;;;;;;18.71;62.72;101815.69;6270586;28;20428;-71
2021/07/19 12:12:18;;;;;;;10.68;5.50;;;;;;;18.78;61.90;101812.56;6271358;28;20123;-71
2021/07/19 12:15:19;;;;;;;14.65;5.03;;;;;;;18.75;61.85;101808.28;6270927;28;20056;-71
2021/07/19 12:18:29;;;;;;;8.30;5.25;;;;;;;18.62;64.45;101804.75;6270492;28;20045;-71
2021/07/19 12:21:30;;;;;;;11.43;5.40;;;;;;;18.86;63.17;101808.41;6270946;28;20052;-71
2021/07/19 12:24:32;;;;;;;7.90;4.75;;;;;;;18.95;62.18;101810.41;6271081;28;20164;-71
2021/07/19 12:27:35;;;;;;;9.80;5.00;;;;;;;18.93;61.65;101803.47;6270695;28;20055;-71
2021/07/19 12:30:36;;;;;;;8.70;4.90;;;;;;;18.85;60.94;101811.16;6270777;28;20049;-71
2021/07/19 12:33:38;;;;;;;11.45;5.32;;;;;;;18.79;64.12;101800.94;6271127;28;20048;-71
2021/07/19 12:36:40;;;;;;;10.57;5.13;;;;;;;18.68;64.53;101802.53;6270804;28;20416;-72
2021/07/19 12:39:44;;;;;;;12.75;5.65;;;;;;;18.66;63.76;101799.13;6270241;28;20073;-71
2021/07/19 12:42:48;;;;;;;13.50;6.63;;;;;;;18.67;63.82;101805.31;6270744;28;20056;-71
2021/07/19 12:45:50;;;;;;;10.57;5.43;;;;;;;18.88;61.97;101800.28;6271057;28;20056;-71
2021/07/19 12:48:51;;;;;;;9.88;5.15;;;;;;;18.85;63.45;101804.03;6270299;28;20053;-71
2021/07/19 12:51:57;;;;;;;10.82;5.15;;;;;;;18.80;60.39;101799.97;6271339;28;20044;-74
2021/07/19 12:55:01;;;;;;;12.32;5.03;;;;;;;18.78;60.73;101805.44;6275251;28;20060;-72
2021/07/19 12:58:06;;;;;;;10.32;5.45;;;;;;;18.74;62.01;101810.13;6275067;28;20052;-72
2021/07/19 13:01:12;;;;;;;14.57;5.45;;;;;;;19.11;61.35;101809.28;6258901;28;20037;-71
2021/07/19 13:04:16;;;;;;;9.98;5.35;;;;;;;18.75;65.13;101813.63;6250186;28;20053;-74
2021/07/19 13:07:28;;;;;;;14.00;4.88;;;;;;;18.73;63.77;101807.56;6249715;28;20054;-72
2021/07/19 13:10:29;;;;;;;15.88;5.10;;;;;;;18.72;64.30;101808.53;6250048;28;20489;-73
2021/07/19 13:13:32;;;;;;;10.65;5.25;;;;;;;18.69;67.85;101806.06;6263295;28;20079;-70
2021/07/19 13:16:33;;;;;;;14.40;4.53;;;;;;;18.86;64.50;101804.91;6274749;28;20544;-70
2021/07/19 13:19:36;;;;;;;18.33;4.95;;;;;;;19.05;62.81;101802.59;6274290;28;20053;-70
2021/07/19 13:22:39;;;;;;;10.50;4.40;;;;;;;19.02;62.66;101803.66;6274199;28;20048;-70
2021/07/19 13:25:42;;;;;;;12.80;5.15;;;;;;;18.98;64.66;101796.84;6274473;28;20044;-70
2021/07/19 13:28:45;;;;;;;11.30;4.50;;;;;;;19.42;60.60;101797.25;6273658;28;20204;-70
2021/07/19 13:31:46;;;;;;;9.82;4.90;;;;;;;19.32;60.83;101794.41;6274246;28;20056;-70
2021/07/19 13:34:55;;;;;;;17.58;5.03;;;;;;;19.22;62.04;101794.25;6273884;28;20061;-70
2021/07/19 13:38:00;;;;;;;13.77;5.18;;;;;;;19.16;62.24;101799.16;6273718;28;20420;-72
2021/07/19 13:41:02;;;;;;;21.20;6.75;;;;;;;18.90;63.84;101801.06;6273746;28;20045;-70
2021/07/19 13:44:05;;;;;;;17.70;10.02;;;;;;;18.82;65.37;101800.75;6274267;28;20068;-72
2021/07/19 13:47:07;;;;;;;9.52;5.38;;;;;;;18.99;63.43;101798.56;6273578;28;20053;-71
2021/07/19 13:50:10;;;;;;;11.57;5.05;;;;;;;18.84;65.40;101806.78;6273831;28;20539;-70
2021/07/19 13:53:11;;;;;;;9.90;4.90;;;;;;;18.75;66.44;101806.47;6273871;28;20074;-71
2021/07/19 13:56:14;;;;;;;16.45;5.70;;;;;;;19.09;65.21;101809.41;6274094;28;20055;-73
2021/07/19 13:59:16;;;;;;;12.77;5.60;;;;;;;19.00;64.71;101805.59;6273324;28;20515;-72
2021/07/19 14:02:18;;;;;;;16.23;5.40;;;;;;;19.06;64.58;101806.97;6273636;28;20041;-74
2021/07/19 14:05:19;;;;;;;16.77;5.30;;;;;;;19.09;65.56;101804.09;6272508;28;20099;-72